Time;durP1;ratioP1;P1;durP2;ratioP2;P2;SDS_P1;SDS_P2;PMS_P1;PMS_P2;Temp;Humidity;BMP_temperature;BMP_pressure;BME280_temperature;BME280_humidity;BME280_pressure;Samples;Min_cycle;Max_cycle;Signal;HPM_P1;HPM_P2
2021/07/24 00:01:28;;;;;;;31.60;13.13;;;;;;;17.46;72.54;98953.02;2169093;82;20996;-74
2021/07/24 00:04:29;;;;;;;26.23;10.98;;;;;;;17.46;72.89;98951.70;2169242;82;20995;-74
2021/07/24 00:07:29;;;;;;;28.40;12.03;;;;;;;17.52;72.76;98945.52;2169002;82;21035;-73
2021/07/24 00:10:30;;;;;;;27.52;10.88;;;;;;;17.46;72.65;98947.72;2169584;82;21463;-59
2021/07/24 00:13:30;;;;;;;27.32;11.50;;;;;;;17.42;72.90;98942.83;2169302;82;21048;-59
2021/07/24 00:16:30;;;;;;;24.30;11.20;;;;;;;17.40;72.86;98947.44;2169363;82;21036;-59
2021/07/24 00:19:31;;;;;;;26.40;11.05;;;;;;;17.46;72.87;98942.42;2168974;82;21073;-59
2021/07/24 00:22:32;;;;;;;25.15;10.60;;;;;;;17.43;72.72;98945.84;2168886;82;21062;-59
2021/07/24 00:25:32;;;;;;;24.07;10.53;;;;;;;17.37;72.86;98944.56;2169348;82;21479;-59
2021/07/24 00:28:32;;;;;;;26.25;10.85;;;;;;;17.33;73.21;98937.02;2169660;82;21084;-59
2021/07/24 00:31:33;;;;;;;25.40;11.68;;;;;;;17.28;73.33;98935.61;2169431;82;21012;-58
2021/07/24 00:34:33;;;;;;;24.18;11.15;;;;;;;17.27;73.50;98941.87;2169423;82;21000;-59
2021/07/24 00:37:34;;;;;;;25.35;11.18;;;;;;;17.28;73.46;98938.26;2169211;82;20976;-59
2021/07/24 00:40:35;;;;;;;24.47;11.22;;;;;;;17.28;73.44;98936.93;2169009;82;21060;-60
2021/07/24 00:43:35;;;;;;;24.37;11.15;;;;;;;17.29;73.62;98937.76;2169424;82;20968;-61
2021/07/24 00:46:36;;;;;;;25.82;11.28;;;;;;;17.34;73.75;98936.88;2168843;82;20988;-59
2021/07/24 00:49:36;;;;;;;25.90;11.55;;;;;;;17.37;73.53;98931.77;2169103;82;21515;-59
2021/07/24 00:52:40;;;;;;;27.37;12.53;;;;;;;17.33;73.55;98931.22;2169135;82;21023;-59
2021/07/24 00:55:39;;;;;;;;;;;;;;;17.28;73.77;98931.63;2151362;82;21277;-59
2021/07/24 00:58:39;;;;;;;25.50;10.72;;;;;;;17.23;73.94;98935.66;2169659;82;20145;-60
2021/07/24 01:01:42;;;;;;;26.15;11.75;;;;;;;17.19;74.17;98933.73;2169529;82;20976;-59
2021/07/24 01:04:42;;;;;;;;;;;;;;;17.15;74.36;98925.70;2151346;82;21478;-60
2021/07/24 01:07:42;;;;;;;23.95;10.68;;;;;;;17.16;74.66;98922.08;2169396;82;20093;-59
2021/07/24 01:10:43;;;;;;;28.10;12.40;;;;;;;17.13;74.18;98917.88;2169506;82;20960;-59
2021/07/24 01:13:44;;;;;;;28.25;12.47;;;;;;;17.12;74.14;98918.87;2169997;82;21060;-60
2021/07/24 01:16:45;;;;;;;25.23;12.10;;;;;;;17.09;74.36;98917.79;2176157;82;21501;-58
2021/07/24 01:19:46;;;;;;;25.50;11.97;;;;;;;17.10;74.30;98914.17;2176559;82;20971;-59
2021/07/24 01:22:46;;;;;;;26.05;11.75;;;;;;;17.12;74.25;98914.04;2176296;82;20971;-59
2021/07/24 01:25:47;;;;;;;28.73;11.88;;;;;;;17.10;74.12;98912.02;2176078;82;20991;-59
2021/07/24 01:28:47;;;;;;;25.45;12.40;;;;;;;17.13;74.16;98914.41;2176125;82;21530;-59
2021/07/24 01:31:48;;;;;;;27.77;11.80;;;;;;;17.12;74.07;98914.04;2176181;82;21460;-59
2021/07/24 01:34:48;;;;;;;25.77;12.03;;;;;;;17.12;74.12;98916.22;2176018;82;20991;-59
2021/07/24 01:37:49;;;;;;;28.70;12.15;;;;;;;17.11;74.12;98917.19;2176439;82;21027;-59
2021/07/24 01:40:49;;;;;;;37.95;19.95;;;;;;;17.12;74.17;98916.22;2176303;82;21086;-59
2021/07/24 01:43:50;;;;;;;30.20;14.00;;;;;;;17.13;74.33;98914.41;2175953;82;20951;-59
2021/07/24 01:46:50;;;;;;;26.97;12.18;;;;;;;17.07;74.64;98917.59;2175983;82;21012;-59
2021/07/24 01:52:53;;;;;;;;;;;;;;;16.73;75.02;98912.50;2152107;82;20953;-60
2021/07/24 01:55:54;;;;;;;24.90;11.45;;;;;;;16.68;75.33;98912.04;2176191;82;20157;-59
2021/07/24 01:58:54;;;;;;;25.82;10.95;;;;;;;16.67;75.20;98915.68;2176103;82;21566;-58
2021/07/24 02:01:55;;;;;;;27.82;12.58;;;;;;;16.73;75.05;98913.33;2176045;82;20972;-59
2021/07/24 02:04:56;;;;;;;31.77;12.53;;;;;;;16.74;74.91;98907.08;2176383;82;21039;-58
2021/07/24 02:07:56;;;;;;;29.00;13.50;;;;;;;16.77;74.78;98908.63;2176117;82;20984;-59
2021/07/24 02:10:57;;;;;;;28.57;12.35;;;;;;;16.76;74.81;98905.12;2176029;82;20972;-59
2021/07/24 02:13:57;;;;;;;27.80;12.43;;;;;;;16.81;75.12;98903.42;2175965;82;21542;-59
2021/07/24 02:16:58;;;;;;;28.50;12.07;;;;;;;16.83;75.11;98906.77;2176036;82;20949;-59
2021/07/24 02:19:58;;;;;;;26.80;12.53;;;;;;;16.73;75.14;98904.06;2176280;82;20980;-59
2021/07/24 02:22:59;;;;;;;30.50;12.58;;;;;;;16.61;75.48;98902.48;2175871;82;21027;-59
2021/07/24 02:25:59;;;;;;;30.82;12.85;;;;;;;16.58;75.55;98907.54;2176263;82;21036;-58
2021/07/24 02:28:59;;;;;;;29.07;12.93;;;;;;;16.53;75.37;98913.70;2176105;82;20933;-59
2021/07/24 02:32:00;;;;;;;30.95;13.78;;;;;;;16.51;75.30;98906.88;2175991;82;20959;-59
2021/07/24 02:35:00;;;;;;;29.95;14.07;;;;;;;16.49;75.40;98899.53;2176097;82;21472;-58
2021/07/24 02:38:01;;;;;;;32.67;14.83;;;;;;;16.49;75.70;98899.03;2176133;82;20939;-58
2021/07/24 02:41:04;;;;;;;34.13;15.35;;;;;;;16.52;75.72;98897.48;2175748;82;21110;-58
2021/07/24 02:44:04;;;;;;;;;;;;;;;16.51;75.45;98898.44;2151846;82;20971;-59
2021/07/24 02:47:05;;;;;;;40.08;17.65;;;;;;;16.49;75.62;98897.71;2176256;82;20367;-59
2021/07/24 02:50:05;;;;;;;35.15;15.35;;;;;;;16.42;75.81;98896.55;2176202;82;21006;-58
2021/07/24 02:53:06;;;;;;;34.85;15.53;;;;;;;16.38;75.63;98896.48;2176228;82;20952;-59
2021/07/24 02:56:06;;;;;;;34.15;14.58;;;;;;;16.36;75.73;98893.10;2176128;82;20960;-59
2021/07/24 02:59:07;;;;;;;30.80;12.85;;;;;;;16.40;76.08;98898.50;2175995;82;21458;-58
2021/07/24 03:02:07;;;;;;;28.75;13.65;;;;;;;16.48;75.90;98902.67;2176006;82;21473;-59
2021/07/24 03:05:08;;;;;;;30.77;14.18;;;;;;;16.49;75.69;98903.50;2175991;82;20956;-59
2021/07/24 03:08:08;;;;;;;34.48;15.55;;;;;;;16.45;75.70;98899.80;2176223;82;21047;-60
2021/07/24 03:11:08;;;;;;;29.35;13.65;;;;;;;16.44;75.65;98898.60;2176256;82;20996;-59
2021/07/24 03:14:09;;;;;;;34.55;16.57;;;;;;;16.42;75.76;98900.52;2175973;82;21118;-59
2021/07/24 03:17:09;;;;;;;38.30;19.25;;;;;;;16.43;76.01;98901.74;2175986;82;21023;-59
2021/07/24 03:20:10;;;;;;;37.15;17.82;;;;;;;16.42;75.96;98903.16;2176096;82;21454;-59
2021/07/24 03:23:10;;;;;;;36.33;17.05;;;;;;;16.39;75.83;98903.43;2176078;82;20971;-60
2021/07/24 03:26:10;;;;;;;32.48;14.95;;;;;;;16.40;75.89;98903.30;2176040;82;21003;-62
2021/07/24 03:29:11;;;;;;;31.05;13.58;;;;;;;16.36;76.00;98893.93;2176196;82;20988;-59
2021/07/24 03:32:11;;;;;;;28.07;13.25;;;;;;;16.37;76.16;98903.56;2176203;82;20987;-59
2021/07/24 03:35:12;;;;;;;27.73;13.20;;;;;;;16.40;76.08;98894.53;2175874;82;20964;-60
2021/07/24 03:38:13;;;;;;;28.23;13.72;;;;;;;16.43;75.98;98896.91;2176184;82;21023;-59
2021/07/24 03:41:14;;;;;;;27.77;13.08;;;;;;;16.48;76.05;98899.17;2175738;82;20996;-59
2021/07/24 03:44:14;;;;;;;27.30;12.90;;;;;;;16.49;75.96;98898.20;2176369;82;21003;-65
2021/07/24 03:47:15;;;;;;;32.15;13.98;;;;;;;16.49;75.97;98902.17;2176163;82;21059;-59
2021/07/24 03:50:15;;;;;;;25.62;12.33;;;;;;;16.49;75.92;98901.68;2176258;82;20953;-58
2021/07/24 03:53:16;;;;;;;26.80;12.13;;;;;;;16.52;75.91;98908.07;2176198;82;21455;-58
2021/07/24 03:56:16;;;;;;;27.93;12.98;;;;;;;16.56;75.98;98900.69;2176158;82;21419;-59
2021/07/24 03:59:17;;;;;;;28.67;11.95;;;;;;;16.58;75.97;98900.92;2176169;82;20941;-58
2021/07/24 04:02:23;;;;;;;27.80;13.03;;;;;;;16.68;76.01;98904.09;2176489;82;20964;-64
2021/07/24 04:05:19;;;;;;;;;;;;;;;16.78;75.88;98901.88;2151769;82;21533;-59
2021/07/24 04:08:20;;;;;;;25.90;12.75;;;;;;;16.80;76.17;98903.89;2167157;81;20111;-60
2021/07/24 04:11:20;;;;;;;28.05;12.70;;;;;;;16.84;75.77;98905.80;2161922;82;21006;-67
2021/07/24 04:14:20;;;;;;;28.02;12.23;;;;;;;16.88;76.08;98903.75;2162363;82;21038;-59
2021/07/24 04:17:21;;;;;;;29.98;12.45;;;;;;;16.96;76.08;98900.79;2170395;82;21473;-59
2021/07/24 04:20:21;;;;;;;29.30;13.10;;;;;;;17.05;75.79;98905.81;2170240;82;21536;-58
2021/07/24 04:23:22;;;;;;;29.02;13.88;;;;;;;17.03;75.79;98905.08;2170342;82;20982;-58
2021/07/24 04:26:22;;;;;;;29.20;14.90;;;;;;;17.13;75.79;98904.63;2170425;82;20971;-58
2021/07/24 04:29:23;;;;;;;27.65;13.48;;;;;;;17.20;75.47;98902.80;2168160;80;21014;-59
2021/07/24 04:32:24;;;;;;;27.35;12.73;;;;;;;17.31;75.43;98901.34;2151108;82;21008;-59
2021/07/24 04:35:24;;;;;;;33.35;13.70;;;;;;;17.41;75.11;98903.56;2127768;84;21507;-58
2021/07/24 04:38:24;;;;;;;30.25;13.48;;;;;;;17.57;75.18;98907.48;2127643;84;20980;-58
2021/07/24 04:41:25;;;;;;;30.05;13.53;;;;;;;17.73;74.56;98898.52;2127574;84;21001;-59
2021/07/24 04:44:26;;;;;;;30.10;14.63;;;;;;;17.85;74.46;98903.20;2127816;84;21008;-67
2021/07/24 04:47:26;;;;;;;29.63;14.60;;;;;;;18.00;74.23;98902.33;2127283;84;20973;-73
2021/07/24 04:50:27;;;;;;;30.60;14.58;;;;;;;18.13;74.16;98902.91;2127754;84;20965;-68
2021/07/24 04:53:27;;;;;;;32.10;14.05;;;;;;;18.18;73.95;98903.31;2127609;84;21443;-58
2021/07/24 04:56:28;;;;;;;36.55;13.93;;;;;;;18.17;73.72;98903.45;2127649;84;20941;-59
2021/07/24 04:59:28;;;;;;;29.72;13.53;;;;;;;18.13;73.88;98899.39;2127555;84;21004;-59
2021/07/24 05:02:28;;;;;;;32.28;15.18;;;;;;;18.05;74.12;98902.76;2127941;84;20980;-58
2021/07/24 05:05:29;;;;;;;28.32;14.33;;;;;;;17.96;74.01;98899.62;2127560;84;21039;-68
2021/07/24 05:08:29;;;;;;;28.77;14.33;;;;;;;17.86;74.43;98900.91;2127710;84;20993;-64
2021/07/24 05:11:30;;;;;;;31.42;15.72;;;;;;;17.82;74.86;98908.30;2127737;84;21539;-59
2021/07/24 05:14:30;;;;;;;33.78;16.52;;;;;;;17.84;75.12;98909.48;2127491;83;20937;-58
2021/07/24 05:17:31;;;;;;;30.68;16.25;;;;;;;17.93;74.82;98905.19;2127635;84;20960;-59
2021/07/24 05:20:31;;;;;;;32.70;15.98;;;;;;;18.15;75.16;98906.25;2127987;84;20960;-58
2021/07/24 05:23:31;;;;;;;33.65;16.37;;;;;;;18.43;74.63;98910.37;2127701;84;21009;-59
2021/07/24 05:26:32;;;;;;;29.72;15.40;;;;;;;18.64;74.38;98909.34;2127593;84;21023;-58
2021/07/24 05:29:33;;;;;;;35.15;16.93;;;;;;;18.89;73.81;98911.87;2127689;84;21077;-59
2021/07/24 05:32:34;;;;;;;35.75;15.60;;;;;;;19.14;73.26;98904.27;2127471;84;21047;-59
2021/07/24 05:35:35;;;;;;;34.35;16.82;;;;;;;19.27;72.68;98904.75;2127753;84;21598;-64
2021/07/24 05:52:17;;;;;;;35.65;15.90;;;;;;;20.38;71.38;98891.23;2127160;84;21104;-58
2021/07/24 05:55:18;;;;;;;30.02;14.80;;;;;;;20.57;70.23;98893.36;2127254;84;21011;-58
2021/07/24 05:58:18;;;;;;;29.82;14.93;;;;;;;20.62;69.51;98888.92;2127712;84;20988;-59
2021/07/24 06:01:19;;;;;;;32.30;14.93;;;;;;;20.62;69.70;98884.92;2127569;84;21529;-59
2021/07/24 06:04:19;;;;;;;31.23;14.33;;;;;;;20.66;70.30;98890.25;2127801;84;21004;-59
2021/07/24 06:07:20;;;;;;;29.25;13.32;;;;;;;20.73;70.45;98886.86;2127786;84;21028;-59
2021/07/24 06:10:20;;;;;;;30.43;13.98;;;;;;;20.89;69.90;98888.78;2127792;84;21036;-59
2021/07/24 06:13:23;;;;;;;27.87;13.90;;;;;;;21.06;68.93;98894.18;2127784;84;20976;-62
2021/07/24 06:16:24;;;;;;;31.10;13.75;;;;;;;21.05;68.75;98898.69;2109576;83;21530;-59
2021/07/24 06:19:24;;;;;;;28.02;12.88;;;;;;;21.04;68.38;98898.84;2137216;83;21019;-59
2021/07/24 06:22:25;;;;;;;26.65;12.53;;;;;;;21.03;68.51;98894.02;2137310;83;20941;-60
2021/07/24 06:25:25;;;;;;;27.25;13.03;;;;;;;21.15;67.94;98897.72;2132803;79;21498;-59
2021/07/24 06:28:26;;;;;;;26.45;12.30;;;;;;;21.12;68.21;98904.23;2172604;82;21062;-59
2021/07/24 06:31:26;;;;;;;26.07;10.30;;;;;;;21.07;67.20;98903.35;2172491;82;20992;-59
2021/07/24 06:34:27;;;;;;;24.82;10.28;;;;;;;21.09;66.21;98902.71;2172464;82;20979;-60
2021/07/24 06:37:27;;;;;;;24.60;10.63;;;;;;;21.18;66.29;98898.25;2172485;82;21489;-70
2021/07/24 06:40:28;;;;;;;25.52;11.50;;;;;;;21.21;65.76;98893.09;2172494;82;21482;-59
2021/07/24 06:43:29;;;;;;;26.27;11.93;;;;;;;21.46;66.01;98885.52;2172370;82;21016;-58
2021/07/24 06:46:29;;;;;;;25.82;11.40;;;;;;;21.67;65.58;98890.94;2172666;82;21031;-59
2021/07/24 06:49:30;;;;;;;28.80;11.40;;;;;;;21.82;65.03;98891.13;2172834;82;20992;-68
2021/07/24 06:52:30;;;;;;;28.77;13.93;;;;;;;21.98;64.44;98889.83;2172746;82;20975;-58
2021/07/24 06:55:31;;;;;;;23.07;9.88;;;;;;;22.26;65.61;98894.84;2172471;82;21604;-58
2021/07/24 06:58:33;;;;;;;22.90;10.17;;;;;;;22.48;64.29;98890.70;2172622;82;21003;-69
2021/07/24 07:01:33;;;;;;;24.23;9.55;;;;;;;22.63;62.52;98891.34;2172459;82;21052;-59
2021/07/24 07:04:34;;;;;;;23.07;9.53;;;;;;;22.71;63.25;98889.97;2172202;82;21018;-59
2021/07/24 07:07:34;;;;;;;22.60;9.68;;;;;;;22.86;63.08;98892.80;2172734;82;20983;-58
2021/07/24 07:10:35;;;;;;;23.70;10.03;;;;;;;23.04;62.21;98891.22;2172469;82;21498;-59
2021/07/24 07:13:36;;;;;;;28.75;10.25;;;;;;;23.18;61.41;98895.89;2172731;82;20983;-58
2021/07/24 07:16:36;;;;;;;25.07;10.10;;;;;;;23.22;62.44;98893.72;2172542;82;21489;-58
2021/07/24 07:19:37;;;;;;;25.57;10.77;;;;;;;23.28;61.58;98895.69;2172540;82;20983;-59
2021/07/24 07:22:38;;;;;;;24.25;9.70;;;;;;;23.28;61.25;98893.02;2172371;82;21118;-59
2021/07/24 07:25:38;;;;;;;24.87;10.55;;;;;;;23.40;61.32;98895.30;2172613;81;21045;-59
2021/07/24 07:28:39;;;;;;;23.10;9.77;;;;;;;23.63;61.59;98898.03;2172549;82;20996;-64
2021/07/24 07:31:39;;;;;;;24.90;9.80;;;;;;;23.96;61.28;98901.88;2172702;82;21466;-71
2021/07/24 07:34:40;;;;;;;21.67;8.03;;;;;;;24.53;61.16;98896.04;2172667;82;21030;-59
2021/07/24 07:37:41;;;;;;;20.67;7.77;;;;;;;24.87;59.98;98896.08;2172816;82;20992;-58
2021/07/24 07:40:42;;;;;;;24.15;7.92;;;;;;;25.10;56.97;98888.45;2172360;82;21028;-59
2021/07/24 07:43:42;;;;;;;21.20;8.10;;;;;;;25.15;56.57;98885.20;2172803;82;21006;-59
2021/07/24 07:46:43;;;;;;;22.27;7.93;;;;;;;25.20;56.65;98896.22;2172528;82;20992;-58
2021/07/24 07:49:43;;;;;;;22.07;6.77;;;;;;;25.30;56.35;98899.94;2172567;82;21560;-58
2021/07/24 07:52:44;;;;;;;19.97;7.57;;;;;;;25.66;56.08;98902.70;2172544;82;21506;-73
2021/07/24 07:55:45;;;;;;;19.13;6.80;;;;;;;26.13;55.64;98903.71;2172520;82;20987;-60
2021/07/24 07:58:45;;;;;;;22.27;7.42;;;;;;;26.20;54.79;98901.39;2172556;82;21055;-58
2021/07/24 08:01:46;;;;;;;21.03;6.90;;;;;;;26.23;52.30;98897.00;2172679;82;20968;-58
2021/07/24 08:04:49;;;;;;;20.30;6.87;;;;;;;26.19;53.24;98905.13;2172533;82;21000;-59
2021/07/24 08:07:49;;;;;;;19.17;6.60;;;;;;;26.23;53.59;98901.52;2172393;82;21658;-59
2021/07/24 08:10:49;;;;;;;21.87;6.73;;;;;;;26.36;53.27;98906.19;2172553;82;21483;-59
2021/07/24 08:13:54;;;;;;;23.10;6.87;;;;;;;26.49;51.69;98906.81;2172562;82;21478;-59
2021/07/24 08:16:52;;;;;;;20.90;6.60;;;;;;;26.79;52.24;98903.44;2176794;82;21027;-58
2021/07/24 08:19:53;;;;;;;19.97;6.60;;;;;;;27.36;47.38;98889.92;2172676;82;21489;-59
2021/07/24 08:22:53;;;;;;;19.70;6.47;;;;;;;27.78;49.58;98891.48;2172554;82;21493;-59
2021/07/24 08:25:54;;;;;;;16.97;6.43;;;;;;;28.20;45.82;98886.51;2172972;81;20995;-59
2021/07/24 08:28:54;;;;;;;19.63;6.90;;;;;;;28.52;46.28;98888.37;2189825;81;21035;-59
2021/07/24 08:31:55;;;;;;;19.17;6.50;;;;;;;28.91;44.36;98884.52;2189787;81;20987;-59
2021/07/24 08:34:56;;;;;;;20.33;6.70;;;;;;;28.91;45.90;98880.46;2194082;80;21007;-73
2021/07/24 08:37:57;;;;;;;19.50;7.10;;;;;;;28.97;43.12;98887.70;2187324;81;21566;-73
2021/07/24 08:40:58;;;;;;;20.30;7.07;;;;;;;29.36;44.63;98881.88;2182483;82;20997;-60
2021/07/24 09:00:27;;;;;;;19.23;6.58;;;;;;;31.16;37.74;98856.38;2261216;79;22374;-65
2021/07/24 09:03:27;;;;;;;20.77;7.53;;;;;;;31.03;40.11;98857.37;2228322;80;21049;-62
2021/07/24 09:06:28;;;;;;;19.43;7.10;;;;;;;31.19;40.23;98858.13;2228569;80;21038;-65
2021/07/24 09:09:28;;;;;;;18.70;6.93;;;;;;;31.49;39.14;98866.78;2228534;80;20955;-60
2021/07/24 09:12:29;;;;;;;17.90;6.57;;;;;;;31.37;36.93;98859.15;2228418;80;20933;-61
2021/07/24 09:15:29;;;;;;;17.80;6.53;;;;;;;31.30;38.41;98859.22;2228556;80;20960;-63
2021/07/24 09:18:30;;;;;;;18.20;6.83;;;;;;;31.44;37.77;98853.93;2228128;80;21016;-65
2021/07/24 09:21:30;;;;;;;18.80;6.83;;;;;;;31.15;36.93;98854.21;2228294;80;21450;-72
2021/07/24 09:24:31;;;;;;;18.32;6.67;;;;;;;30.97;36.29;98850.13;2228206;80;20983;-62
2021/07/24 09:27:31;;;;;;;18.73;6.87;;;;;;;30.33;37.97;98852.50;2228321;80;21046;-64
2021/07/24 09:30:33;;;;;;;19.30;7.17;;;;;;;30.36;39.16;98843.13;2228504;80;21007;-63
2021/07/24 09:33:35;;;;;;;19.70;6.72;;;;;;;30.24;39.08;98847.05;2225788;80;21142;-59
2021/07/24 09:36:35;;;;;;;19.12;6.42;;;;;;;30.57;39.01;98843.25;2226721;80;20945;-62
2021/07/24 09:39:36;;;;;;;19.15;6.35;;;;;;;30.92;34.00;98838.62;2226345;80;21003;-59
2021/07/24 09:42:37;;;;;;;19.17;7.30;;;;;;;30.04;37.00;98846.70;2226477;80;20999;-59
2021/07/24 09:45:37;;;;;;;17.05;6.90;;;;;;;29.86;38.07;98843.93;2226286;80;21066;-60
2021/07/24 09:48:38;;;;;;;19.47;7.20;;;;;;;30.12;37.89;98836.13;2227636;80;21513;-59
2021/07/24 09:51:39;;;;;;;18.98;7.33;;;;;;;30.54;38.72;98840.99;2227952;80;21566;-59
2021/07/24 09:54:40;;;;;;;19.37;6.53;;;;;;;30.77;38.35;98828.16;2228085;80;21089;-60
2021/07/24 09:57:40;;;;;;;18.27;7.03;;;;;;;31.04;37.50;98835.47;2228087;80;21007;-59
2021/07/24 10:00:41;;;;;;;17.17;6.47;;;;;;;30.70;36.60;98827.39;2221329;80;20969;-59
2021/07/24 10:03:42;;;;;;;18.07;6.93;;;;;;;30.57;37.21;98829.72;2221589;80;21486;-64
2021/07/24 10:06:43;;;;;;;;;;;;;;;30.37;37.36;98828.02;2224245;80;21585;-63
2021/07/24 10:09:43;;;;;;;18.57;6.53;;;;;;;30.47;37.36;98835.66;2221403;80;20091;-68
2021/07/24 10:12:44;;;;;;;19.90;7.27;;;;;;;30.74;37.44;98834.84;2220861;80;21518;-61
2021/07/24 10:15:44;;;;;;;21.90;8.70;;;;;;;30.63;36.92;98832.05;2221046;80;21506;-62
2021/07/24 10:18:45;;;;;;;18.43;6.83;;;;;;;30.53;35.80;98814.47;2220848;80;21475;-60
2021/07/24 10:21:45;;;;;;;19.30;7.20;;;;;;;30.43;36.31;98816.02;2220942;80;21031;-60
2021/07/24 10:24:45;;;;;;;17.33;6.23;;;;;;;30.91;37.11;98814.77;2221231;80;20971;-60
2021/07/24 10:27:47;;;;;;;17.20;6.50;;;;;;;30.75;36.55;98808.62;2220574;80;21443;-60
2021/07/24 10:30:47;;;;;;;19.17;6.73;;;;;;;30.77;37.18;98802.44;2221097;80;20987;-60
2021/07/24 10:33:47;;;;;;;19.33;7.00;;;;;;;31.22;36.06;98792.66;2221276;80;21011;-60
2021/07/24 10:36:48;;;;;;;19.73;6.77;;;;;;;31.02;36.64;98802.39;2220959;80;20977;-59
2021/07/24 10:39:48;;;;;;;18.92;6.60;;;;;;;30.88;35.34;98803.04;2220810;80;20961;-59
2021/07/24 10:42:49;;;;;;;18.70;6.33;;;;;;;30.63;35.87;98789.60;2220997;80;20969;-61
2021/07/24 10:45:49;;;;;;;18.73;6.47;;;;;;;30.65;35.12;98792.89;2220850;80;21461;-63
2021/07/24 10:48:51;;;;;;;15.58;6.10;;;;;;;31.05;36.02;98788.39;2220542;80;21119;-66
2021/07/24 10:51:51;;;;;;;20.77;7.80;;;;;;;31.17;34.19;98781.67;2221211;80;21023;-62
2021/07/24 10:54:52;;;;;;;18.43;6.23;;;;;;;31.30;34.29;98785.27;2221216;80;21023;-59
2021/07/24 10:57:55;;;;;;;18.07;6.30;;;;;;;31.25;33.62;98781.89;2220928;80;21008;-59
2021/07/24 11:00:55;;;;;;;18.10;6.60;;;;;;;31.39;34.74;98787.94;2199955;80;21055;-64
2021/07/24 11:03:56;;;;;;;17.98;6.25;;;;;;;31.61;35.36;98785.03;2217316;80;20941;-59
2021/07/24 11:06:57;;;;;;;19.50;6.67;;;;;;;32.13;34.64;98787.68;2217361;80;21543;-60
2021/07/24 11:09:58;;;;;;;17.50;6.08;;;;;;;32.42;33.20;98781.01;2217681;80;20996;-64
2021/07/24 11:12:58;;;;;;;17.55;6.08;;;;;;;32.62;33.29;98784.16;2217542;80;20953;-66
2021/07/24 11:15:58;;;;;;;16.02;5.90;;;;;;;32.68;32.20;98781.59;2217288;80;21024;-65
2021/07/24 11:18:59;;;;;;;19.67;5.75;;;;;;;32.71;32.01;98781.11;2217368;80;21024;-66
2021/07/24 11:21:59;;;;;;;18.30;6.28;;;;;;;33.12;32.05;98775.16;2217272;80;20972;-64
2021/07/24 11:25:00;;;;;;;19.55;5.95;;;;;;;33.23;32.68;98782.98;2217421;80;21450;-59
2021/07/24 11:28:00;;;;;;;17.75;6.17;;;;;;;33.13;32.32;98777.62;2217370;80;20972;-64
2021/07/24 11:31:02;;;;;;;18.62;6.10;;;;;;;33.55;32.88;98775.67;2217626;80;20987;-60
2021/07/24 11:34:03;;;;;;;17.30;6.30;;;;;;;33.95;32.30;98778.30;2217236;80;21062;-62
2021/07/24 11:37:04;;;;;;;;;;;;;;;34.09;31.64;98771.15;2219900;80;21445;-62
2021/07/24 11:40:04;;;;;;;17.40;6.00;;;;;;;33.84;30.93;98774.58;2217746;80;20115;-66
2021/07/24 11:43:06;;;;;;;17.37;5.92;;;;;;;33.54;30.91;98778.12;2217087;80;21028;-60
2021/07/24 11:46:07;;;;;;;16.60;5.72;;;;;;;32.69;30.92;98781.90;2217134;80;20976;-62
2021/07/24 11:49:08;;;;;;;17.45;6.15;;;;;;;32.08;31.83;98785.65;2217337;80;21529;-60
2021/07/24 11:52:08;;;;;;;;;;;;;;;31.67;32.20;98781.93;2220047;80;21562;-62
2021/07/24 11:55:09;;;;;;;17.50;6.20;;;;;;;31.75;33.10;98780.24;2217763;80;20135;-60
2021/07/24 11:58:10;;;;;;;19.20;7.00;;;;;;;32.17;32.88;98776.66;2217321;80;21025;-60
2021/07/24 12:01:11;;;;;;;18.95;6.78;;;;;;;32.52;32.01;98768.20;2210128;80;21646;-61
2021/07/24 12:04:13;;;;;;;17.20;6.10;;;;;;;32.63;31.50;98768.72;2210627;81;21051;-60
2021/07/24 12:07:13;;;;;;;19.27;6.72;;;;;;;32.44;32.11;98766.14;2203840;81;21012;-60
2021/07/24 12:13:18;;;;;;;18.48;6.12;;;;;;;31.02;32.24;98762.28;2203166;81;21549;-60
2021/07/24 12:16:19;;;;;;;20.70;6.47;;;;;;;30.53;33.90;98766.27;2210726;81;21044;-60
2021/07/24 12:19:21;;;;;;;17.67;6.90;;;;;;;30.44;34.34;98770.34;2210131;81;21016;-60
2021/07/24 12:22:21;;;;;;;16.67;6.28;;;;;;;30.41;34.07;98765.66;2210373;81;20980;-61
2021/07/24 12:25:22;;;;;;;17.60;5.97;;;;;;;30.45;34.38;98763.34;2210438;81;21036;-60
2021/07/24 12:28:22;;;;;;;19.30;6.80;;;;;;;30.47;34.45;98766.67;2210714;81;21111;-63
2021/07/24 12:31:23;;;;;;;21.97;7.13;;;;;;;30.80;34.32;98763.27;2210728;81;20996;-61
2021/07/24 12:34:23;;;;;;;21.67;7.00;;;;;;;31.27;34.82;98754.85;2210581;81;21022;-61
2021/07/24 12:37:23;;;;;;;16.67;6.17;;;;;;;31.34;34.43;98753.41;2210274;81;21055;-61
2021/07/24 12:40:24;;;;;;;15.47;6.13;;;;;;;30.83;33.98;98749.27;2210550;81;21467;-62
2021/07/24 12:43:25;;;;;;;17.98;6.35;;;;;;;30.40;34.55;98753.17;2210316;81;21451;-60
2021/07/24 12:46:27;;;;;;;19.63;6.00;;;;;;;30.49;34.86;98739.39;2210823;81;21013;-60
2021/07/24 12:49:28;;;;;;;19.87;6.70;;;;;;;30.53;34.77;98749.53;2210311;81;21017;-60
2021/07/24 12:52:29;;;;;;;19.00;7.20;;;;;;;30.92;34.45;98744.68;2210127;81;20993;-60
2021/07/24 12:55:33;;;;;;;20.45;6.42;;;;;;;30.51;35.13;98744.84;2210596;81;21063;-61
2021/07/24 12:58:31;;;;;;;17.77;6.85;;;;;;;30.09;35.47;98751.94;2203956;81;21507;-63
2021/07/24 13:01:32;;;;;;;21.17;7.00;;;;;;;29.81;35.33;98743.20;2210831;81;21048;-64
2021/07/24 13:04:32;;;;;;;18.90;7.37;;;;;;;29.52;36.15;98755.47;2210724;81;21078;-60
2021/07/24 13:07:33;;;;;;;21.70;7.33;;;;;;;28.90;36.49;98753.82;2210082;81;21001;-63
2021/07/24 13:10:33;;;;;;;19.10;6.67;;;;;;;28.64;37.80;98745.60;2210564;81;21004;-60
2021/07/24 13:13:34;;;;;;;19.67;7.47;;;;;;;28.58;36.99;98748.31;2210551;81;21518;-61
2021/07/24 13:16:35;;;;;;;22.67;7.83;;;;;;;28.36;38.04;98758.02;2210377;81;21471;-65
2021/07/24 13:19:36;;;;;;;19.00;6.92;;;;;;;28.15;38.38;98759.08;2210542;80;21055;-62
2021/07/24 13:22:36;;;;;;;19.63;7.80;;;;;;;27.90;38.68;98755.65;2210700;81;21065;-61
2021/07/24 13:28:37;;;;;;;21.10;7.53;;;;;;;27.55;39.64;98748.27;2210839;81;21567;-60
2021/07/24 13:31:37;;;;;;;22.43;8.17;;;;;;;27.37;40.36;98746.16;2210371;81;21067;-63
2021/07/24 13:34:38;;;;;;;21.80;7.90;;;;;;;27.36;40.89;98745.87;2210685;81;21059;-59
2021/07/24 13:37:38;;;;;;;19.03;7.43;;;;;;;27.43;40.61;98739.97;2210383;81;20996;-63
2021/07/24 13:40:39;;;;;;;20.27;7.80;;;;;;;27.85;40.79;98743.30;2210534;81;21005;-62
2021/07/24 13:43:39;;;;;;;21.57;7.90;;;;;;;28.13;39.56;98738.22;2210564;81;21440;-62
2021/07/24 13:46:40;;;;;;;19.57;8.20;;;;;;;28.25;39.62;98751.38;2210471;81;20981;-62
2021/07/24 13:49:40;;;;;;;20.40;7.63;;;;;;;28.25;40.42;98741.95;2211001;81;20957;-61
2021/07/24 13:52:41;;;;;;;19.87;8.10;;;;;;;28.27;40.53;98741.73;2210723;81;20930;-61
2021/07/24 13:55:41;;;;;;;22.07;8.37;;;;;;;28.46;40.23;98734.63;2210859;81;21030;-64
2021/07/24 13:58:44;;;;;;;22.37;7.80;;;;;;;28.44;41.06;98726.75;2210524;81;21044;-61
2021/07/24 14:01:44;;;;;;;19.35;8.15;;;;;;;28.49;39.67;98728.84;2203950;81;21013;-61
2021/07/24 14:04:44;;;;;;;22.82;7.47;;;;;;;29.00;38.14;98720.44;2210406;81;21016;-60
2021/07/24 14:07:45;;;;;;;19.73;7.87;;;;;;;29.33;38.10;98732.42;2210701;81;20933;-63
2021/07/24 14:10:46;;;;;;;21.50;7.33;;;;;;;29.19;37.80;98728.11;2210569;81;21033;-60
2021/07/24 14:13:46;;;;;;;20.13;7.93;;;;;;;28.78;37.86;98729.38;2210717;81;21504;-63
2021/07/24 14:16:47;;;;;;;18.13;7.10;;;;;;;28.61;38.62;98726.30;2210928;81;21083;-62
2021/07/24 14:19:47;;;;;;;18.30;7.67;;;;;;;28.94;39.16;98730.76;2210821;81;20993;-62
2021/07/24 14:22:48;;;;;;;20.10;7.78;;;;;;;29.56;38.54;98728.31;2210751;81;21036;-65
2021/07/24 14:25:48;;;;;;;21.03;7.30;;;;;;;29.92;37.86;98734.91;2210566;81;20977;-60
2021/07/24 14:28:49;;;;;;;24.43;7.43;;;;;;;29.38;37.89;98727.20;2210689;81;21467;-60
2021/07/24 14:31:50;;;;;;;19.80;7.58;;;;;;;29.19;38.80;98737.06;2210411;81;21016;-61
2021/07/24 14:34:50;;;;;;;20.43;7.70;;;;;;;29.06;39.36;98733.06;2210848;81;21080;-65
2021/07/24 14:37:51;;;;;;;19.77;7.60;;;;;;;28.95;38.47;98733.74;2210836;81;20977;-60